Time;durP1;ratioP1;P1;durP2;ratioP2;P2;SDS_P1;SDS_P2;PMS_P1;PMS_P2;Temp;Humidity;BMP_temperature;BMP_pressure;BME280_temperature;BME280_humidity;BME280_pressure;Samples;Min_cycle;Max_cycle;Signal;HPM_P1;HPM_P2
2022/09/08 00:00:18;;;;;;;3.90;3.60;;;18.00;72.00;;;;;;5207179;28;20346;-47
2022/09/08 00:02:49;;;;;;;5.80;3.50;;;18.00;71.90;;;;;;5219955;28;20205;-48
2022/09/08 00:05:23;;;;;;;3.80;3.00;;;18.00;71.90;;;;;;5200080;28;20216;-47
2022/09/08 00:07:55;;;;;;;4.23;3.67;;;17.90;71.80;;;;;;5212750;28;20186;-49
2022/09/08 00:10:28;;;;;;;7.13;3.43;;;17.90;72.00;;;;;;5223158;28;20464;-48
2022/09/08 00:13:00;;;;;;;4.43;3.60;;;17.90;71.90;;;;;;5236035;28;20512;-47
2022/09/08 00:15:31;;;;;;;3.70;2.90;;;17.90;72.00;;;;;;5221531;28;20445;-46
2022/09/08 00:18:01;;;;;;;7.80;3.43;;;17.80;72.00;;;;;;5224915;28;20450;-49
2022/09/08 00:20:33;;;;;;;7.10;3.50;;;17.80;71.90;;;;;;5221129;28;20744;-50
2022/09/08 00:23:03;;;;;;;6.17;3.47;;;17.80;72.20;;;;;;5221591;28;20316;-47
2022/09/08 00:25:34;;;;;;;8.57;2.93;;;17.70;72.40;;;;;;5226208;28;20541;-47
2022/09/08 00:28:04;;;;;;;3.63;3.30;;;17.70;72.60;;;;;;5223778;28;20230;-48
2022/09/08 00:30:35;;;;;;;7.87;3.63;;;17.70;72.80;;;;;;5219734;28;20235;-47
2022/09/08 00:33:06;;;;;;;4.43;3.27;;;17.70;72.30;;;;;;5226968;28;20216;-48
2022/09/08 00:35:42;;;;;;;4.93;3.77;;;17.70;72.40;;;;;;5221185;28;20229;-47
2022/09/08 00:38:12;;;;;;;11.50;3.30;;;17.60;72.10;;;;;;5224263;28;20480;-48
2022/09/08 00:40:46;;;;;;;2.93;2.73;;;17.60;72.60;;;;;;5220197;28;20489;-47
2022/09/08 00:43:41;;;;;;;5.80;3.80;;;17.60;72.20;;;;;;5220337;28;20278;-48
2022/09/08 00:46:12;;;;;;;11.17;3.30;;;17.60;72.20;;;;;;5220239;28;20545;-48
2022/09/08 00:48:46;;;;;;;2.73;2.63;;;17.60;72.10;;;;;;5220282;28;20441;-48
2022/09/08 00:51:17;;;;;;;3.80;3.40;;;17.50;72.00;;;;;;5224034;28;20486;-49
2022/09/08 00:53:48;;;;;;;5.17;3.90;;;17.50;72.10;;;;;;5217844;28;20488;-47
2022/09/08 00:56:19;;;;;;;8.80;3.30;;;17.50;72.10;;;;;;5220951;28;20825;-48
2022/09/08 00:58:50;;;;;;;8.63;3.33;;;17.50;72.10;;;;;;5213974;28;20180;-47
2022/09/08 01:01:20;;;;;;;5.70;2.83;;;17.50;72.20;;;;;;5202741;28;20325;-50
2022/09/08 01:03:52;;;;;;;5.60;2.93;;;17.40;72.00;;;;;;5223414;28;20719;-47
2022/09/08 01:12:54;;;;;;;9.13;3.33;;;17.40;72.00;;;;;;5215315;28;21507;-48
2022/09/08 01:15:29;;;;;;;4.63;3.10;;;17.30;71.80;;;;;;5216683;28;20445;-48
2022/09/08 01:18:00;;;;;;;3.97;3.10;;;17.30;71.60;;;;;;5222249;28;20524;-47
2022/09/08 01:20:34;;;;;;;4.83;2.80;;;17.20;71.70;;;;;;5221922;28;20522;-48
2022/09/08 01:23:22;;;;;;;2.53;2.33;;;17.20;71.90;;;;;;5223978;28;20847;-48
2022/09/08 01:26:21;;;;;;;4.30;3.53;;;17.20;71.70;;;;;;5219603;28;20458;-47
2022/09/08 01:28:58;;;;;;;4.83;3.67;;;17.10;71.70;;;;;;5226614;28;20475;-48
2022/09/08 01:31:33;;;;;;;12.83;3.60;;;17.10;71.70;;;;;;5220624;28;20465;-49
2022/09/08 01:34:04;;;;;;;7.13;2.83;;;17.10;72.10;;;;;;5223583;28;20901;-48
2022/09/08 01:36:35;;;;;;;3.80;2.60;;;17.10;71.50;;;;;;5221192;28;20434;-46
2022/09/08 01:39:05;;;;;;;11.27;2.97;;;17.00;71.60;;;;;;5222720;28;20183;-51
2022/09/08 01:41:36;;;;;;;3.00;2.80;;;17.00;71.40;;;;;;5219983;28;20532;-48
2022/09/08 01:44:07;;;;;;;4.27;2.80;;;17.00;71.30;;;;;;5219314;28;20184;-50
2022/09/08 01:46:37;;;;;;;3.27;2.93;;;17.00;70.90;;;;;;5218008;28;20264;-47
2022/09/08 01:49:08;;;;;;;5.83;2.63;;;17.00;71.00;;;;;;5213788;28;20179;-47
2022/09/08 01:51:38;;;;;;;3.80;2.77;;;17.00;70.90;;;;;;5218604;28;20227;-48
2022/09/08 01:54:09;;;;;;;6.27;2.40;;;17.00;70.70;;;;;;5223617;28;20229;-48
2022/09/08 01:56:39;;;;;;;26.30;3.67;;;17.00;70.60;;;;;;5218991;28;20175;-47
2022/09/08 01:59:10;;;;;;;8.97;3.33;;;17.00;70.60;;;;;;5219884;28;20187;-49
2022/09/08 02:01:41;;;;;;;4.77;2.23;;;17.00;70.30;;;;;;5224671;28;20214;-49
2022/09/08 02:04:12;;;;;;;4.73;2.80;;;17.00;70.10;;;;;;5224248;28;20186;-48
2022/09/08 02:06:43;;;;;;;3.43;2.33;;;17.00;70.10;;;;;;5210978;28;20210;-49
2022/09/08 02:09:13;;;;;;;4.50;3.20;;;17.00;70.10;;;;;;5226266;28;20435;-47
2022/09/08 02:11:44;;;;;;;4.97;2.60;;;16.90;70.00;;;;;;5225980;28;20199;-49
2022/09/08 02:14:15;;;;;;;3.57;3.10;;;16.90;70.20;;;;;;5219954;28;20282;-48
2022/09/08 02:16:46;;;;;;;2.87;2.50;;;16.90;70.40;;;;;;5218912;28;20520;-48
2022/09/08 02:19:16;;;;;;;9.23;2.70;;;16.90;70.50;;;;;;5214348;28;20193;-48
2022/09/08 02:21:47;;;;;;;11.07;2.93;;;16.80;69.90;;;;;;5223005;28;20583;-48
2022/09/08 02:24:17;;;;;;;2.93;2.70;;;16.80;69.70;;;;;;5222945;28;20179;-48
2022/09/08 02:26:48;;;;;;;6.43;3.33;;;16.70;69.60;;;;;;5222795;28;20238;-49
2022/09/08 02:29:18;;;;;;;8.77;2.77;;;16.70;69.80;;;;;;5218831;28;20198;-47
2022/09/08 02:31:49;;;;;;;7.20;3.37;;;16.60;69.80;;;;;;5217678;28;20218;-48
2022/09/08 02:34:20;;;;;;;3.40;2.47;;;16.60;69.90;;;;;;5216029;28;20183;-48
2022/09/08 02:36:50;;;;;;;4.43;2.60;;;16.60;70.50;;;;;;5213007;28;20547;-48
2022/09/08 02:39:21;;;;;;;4.57;2.80;;;16.50;69.70;;;;;;5222324;28;20191;-48
2022/09/08 02:41:53;;;;;;;5.73;2.47;;;16.50;69.90;;;;;;5219692;28;20297;-47
2022/09/08 02:44:24;;;;;;;2.53;2.30;;;16.50;69.80;;;;;;5222222;28;20178;-48
2022/09/08 02:46:54;;;;;;;3.87;2.70;;;16.40;69.80;;;;;;5222000;28;20465;-48
2022/09/08 02:49:25;;;;;;;2.43;2.23;;;16.40;69.40;;;;;;5208348;28;20266;-47
2022/09/08 02:51:55;;;;;;;6.43;3.10;;;16.40;69.30;;;;;;5220492;28;20181;-48
2022/09/08 02:54:26;;;;;;;2.60;2.37;;;16.30;69.10;;;;;;5215159;28;20187;-47
2022/09/08 02:56:56;;;;;;;6.83;2.60;;;16.30;69.00;;;;;;5223046;28;20198;-48
2022/09/08 02:59:27;;;;;;;3.60;2.13;;;16.30;69.10;;;;;;5226342;28;20190;-48
2022/09/08 03:01:58;;;;;;;11.40;3.13;;;16.30;69.00;;;;;;5224994;28;20246;-48
2022/09/08 03:04:29;;;;;;;3.80;2.43;;;16.20;69.30;;;;;;5249027;28;20182;-48
2022/09/08 03:06:59;;;;;;;6.90;2.47;;;16.20;69.10;;;;;;5231307;28;20467;-47
2022/09/08 03:09:30;;;;;;;2.93;2.63;;;16.20;69.30;;;;;;5226097;28;20215;-48
2022/09/08 03:12:00;;;;;;;4.07;2.10;;;16.20;69.10;;;;;;5227261;28;20186;-49
2022/09/08 03:14:31;;;;;;;7.53;3.40;;;16.20;68.80;;;;;;5223303;28;20197;-48
2022/09/08 03:17:02;;;;;;;3.33;3.03;;;16.10;68.90;;;;;;5225442;28;20233;-47
2022/09/08 03:19:32;;;;;;;3.83;2.83;;;16.10;68.90;;;;;;5227340;28;20665;-48
2022/09/08 03:22:03;;;;;;;3.60;2.50;;;16.10;69.00;;;;;;5224237;28;20186;-47
2022/09/08 03:24:34;;;;;;;5.93;2.60;;;16.00;68.90;;;;;;5216280;28;20390;-48
2022/09/08 03:27:04;;;;;;;2.43;2.30;;;16.00;68.80;;;;;;5221234;28;21654;-47
2022/09/08 03:29:35;;;;;;;8.80;2.80;;;16.00;68.40;;;;;;5224327;28;20191;-49
2022/09/08 03:32:06;;;;;;;2.70;2.33;;;16.00;68.40;;;;;;5220822;28;20179;-48
2022/09/08 03:34:37;;;;;;;5.37;2.70;;;15.90;68.30;;;;;;5230122;28;20647;-49
2022/09/08 03:37:07;;;;;;;3.30;3.10;;;15.90;68.50;;;;;;5224943;28;20552;-47
2022/09/08 03:39:38;;;;;;;20.20;3.00;;;15.90;68.20;;;;;;5216005;28;20510;-48
2022/09/08 03:42:09;;;;;;;4.43;2.87;;;15.80;68.40;;;;;;5215186;28;20194;-48
2022/09/08 03:44:41;;;;;;;4.03;2.47;;;15.80;68.40;;;;;;5227644;28;20183;-48
2022/09/08 03:47:11;;;;;;;4.63;2.30;;;15.80;67.90;;;;;;5219745;28;20270;-47
2022/09/08 03:49:42;;;;;;;5.07;2.93;;;15.80;68.10;;;;;;5218249;28;20580;-48
2022/09/08 03:52:12;;;;;;;2.93;2.60;;;15.80;67.70;;;;;;5217982;28;20184;-47
2022/09/08 03:54:50;;;;;;;3.80;2.40;;;15.70;67.90;;;;;;5224454;28;20666;-49
2022/09/08 03:57:24;;;;;;;4.40;2.67;;;15.70;67.90;;;;;;5226267;28;20182;-47
2022/09/08 03:59:57;;;;;;;5.77;2.60;;;15.70;68.00;;;;;;5220171;28;20549;-49
2022/09/08 04:02:30;;;;;;;7.03;2.57;;;15.70;68.00;;;;;;5219691;28;20466;-49
2022/09/08 04:05:01;;;;;;;3.23;2.40;;;15.70;68.20;;;;;;5221876;28;20457;-50
2022/09/08 04:07:34;;;;;;;3.20;2.90;;;15.70;68.00;;;;;;5230968;28;20956;-47
2022/09/08 04:10:07;;;;;;;4.17;2.97;;;15.70;67.70;;;;;;5217813;28;20461;-48
2022/09/08 04:12:37;;;;;;;5.50;3.07;;;15.60;67.60;;;;;;5223597;28;20489;-48
2022/09/08 04:15:09;;;;;;;3.23;2.37;;;15.70;67.90;;;;;;5218674;28;20918;-48
2022/09/08 04:17:40;;;;;;;4.80;2.53;;;15.60;67.70;;;;;;5231601;28;20188;-48
2022/09/08 04:20:13;;;;;;;4.00;2.40;;;15.70;67.70;;;;;;5199632;28;20461;-46
2022/09/08 04:22:43;;;;;;;2.70;2.60;;;15.60;67.60;;;;;;5214279;28;20434;-48
2022/09/08 04:25:14;;;;;;;3.90;2.67;;;15.60;67.50;;;;;;5211050;28;20848;-47
2022/09/08 04:27:44;;;;;;;5.93;2.97;;;15.60;67.60;;;;;;5223819;28;20195;-47
2022/09/08 04:30:15;;;;;;;9.80;2.80;;;15.60;67.50;;;;;;5218322;28;20218;-48
2022/09/08 04:32:46;;;;;;;3.87;3.27;;;15.60;67.80;;;;;;5218000;28;20175;-50
2022/09/08 04:35:16;;;;;;;4.47;2.83;;;15.60;67.50;;;;;;5216958;28;20651;-46
2022/09/08 04:37:47;;;;;;;3.83;3.40;;;15.60;67.60;;;;;;5223453;28;20221;-48
2022/09/08 04:40:17;;;;;;;8.43;3.53;;;15.60;67.70;;;;;;5217225;28;20680;-47
2022/09/08 04:42:48;;;;;;;5.20;2.83;;;15.60;67.50;;;;;;5226230;28;20625;-47
2022/09/08 04:45:19;;;;;;;5.30;3.27;;;15.60;67.40;;;;;;5212093;28;20703;-49
2022/09/08 04:47:50;;;;;;;4.40;3.70;;;15.60;67.30;;;;;;5218691;28;20202;-49
2022/09/08 04:50:20;;;;;;;3.43;2.83;;;15.60;67.20;;;;;;5214861;28;20563;-50
2022/09/08 04:52:51;;;;;;;3.80;3.00;;;15.60;67.20;;;;;;5216018;28;20224;-49
2022/09/08 04:55:21;;;;;;;3.10;2.90;;;15.70;67.00;;;;;;5228668;28;20217;-49
2022/09/08 04:57:52;;;;;;;7.33;2.80;;;15.70;67.40;;;;;;5212040;28;20259;-48
2022/09/08 05:00:22;;;;;;;6.03;3.83;;;15.60;67.10;;;;;;5215663;28;20215;-49
2022/09/08 05:02:53;;;;;;;9.73;4.10;;;15.70;67.20;;;;;;5214247;28;20186;-48
2022/09/08 05:05:24;;;;;;;3.40;2.60;;;15.80;66.90;;;;;;5222647;28;20211;-48
2022/09/08 05:07:54;;;;;;;3.60;3.30;;;15.80;66.80;;;;;;5222463;28;20361;-48
2022/09/08 05:10:27;;;;;;;6.07;3.07;;;15.80;66.80;;;;;;5222230;28;20222;-47
2022/09/08 05:12:58;;;;;;;6.87;3.53;;;15.80;67.00;;;;;;5225340;28;20195;-47
2022/09/08 05:15:29;;;;;;;13.87;3.57;;;15.80;66.80;;;;;;5221640;28;20474;-47
2022/09/08 05:17:59;;;;;;;7.23;3.70;;;15.80;66.70;;;;;;5225317;28;20465;-51
2022/09/08 05:20:30;;;;;;;6.20;3.03;;;15.90;67.20;;;;;;5212756;28;20949;-48
2022/09/08 05:23:00;;;;;;;3.30;2.80;;;15.90;66.60;;;;;;5221391;28;20211;-49
2022/09/08 05:25:31;;;;;;;7.90;3.17;;;15.90;66.80;;;;;;5212546;28;20665;-49
2022/09/08 05:28:02;;;;;;;5.40;2.83;;;15.90;66.60;;;;;;5220382;28;20628;-47
2022/09/08 05:30:32;;;;;;;3.43;3.13;;;16.00;66.40;;;;;;5218376;28;20199;-48
2022/09/08 05:33:03;;;;;;;6.30;3.17;;;16.00;66.30;;;;;;5211728;28;20224;-48
2022/09/08 05:35:36;;;;;;;5.33;3.63;;;16.00;66.70;;;;;;5220733;28;20187;-48
2022/09/08 05:38:06;;;;;;;4.80;2.80;;;16.10;66.20;;;;;;5205447;28;20249;-49
2022/09/08 05:40:37;;;;;;;18.33;3.50;;;16.20;66.00;;;;;;5220131;28;20458;-49
2022/09/08 05:43:08;;;;;;;10.07;4.10;;;16.30;66.10;;;;;;5231231;28;20191;-49
2022/09/08 05:45:43;;;;;;;4.00;2.60;;;16.30;65.60;;;;;;5214194;28;20203;-50
2022/09/08 05:48:14;;;;;;;4.00;3.27;;;16.40;66.10;;;;;;5218081;28;20491;-51
2022/09/08 05:50:45;;;;;;;5.10;3.53;;;16.50;65.50;;;;;;5218513;28;20536;-50
2022/09/08 05:53:16;;;;;;;3.40;2.63;;;16.50;65.20;;;;;;5220825;28;20190;-49
2022/09/08 05:55:59;;;;;;;4.87;3.40;;;16.50;64.90;;;;;;5207390;28;20437;-49
2022/09/08 05:58:31;;;;;;;3.70;3.27;;;16.50;64.90;;;;;;5222836;28;20280;-50
2022/09/08 06:01:07;;;;;;;9.47;3.53;;;16.50;65.20;;;;;;5221652;28;20457;-49
2022/09/08 06:03:38;;;;;;;9.23;3.50;;;16.50;65.20;;;;;;5218179;28;20800;-49
2022/09/08 06:06:11;;;;;;;5.47;3.40;;;16.50;65.30;;;;;;5213586;28;20480;-49
2022/09/08 06:08:41;;;;;;;4.33;3.80;;;16.50;65.10;;;;;;5221977;28;20187;-50
2022/09/08 06:11:13;;;;;;;8.20;3.23;;;16.40;65.30;;;;;;5213145;28;20456;-49
2022/09/08 06:13:43;;;;;;;8.90;3.87;;;16.50;65.40;;;;;;5219084;28;20186;-49
2022/09/08 06:16:14;;;;;;;10.70;3.97;;;16.50;65.70;;;;;;5221975;28;20437;-48
2022/09/08 06:18:46;;;;;;;3.40;2.73;;;16.50;65.60;;;;;;5221640;28;20218;-48
2022/09/08 06:21:23;;;;;;;5.17;3.47;;;16.50;65.40;;;;;;5222159;28;20723;-48
2022/09/08 06:23:57;;;;;;;5.07;3.97;;;16.50;65.80;;;;;;5222736;28;20425;-48
2022/09/08 06:26:52;;;;;;;5.10;3.43;;;16.50;65.70;;;;;;5221793;28;20495;-48
2022/09/08 06:29:47;;;;;;;3.80;3.50;;;16.60;65.70;;;;;;5222843;28;20433;-48
2022/09/08 06:32:36;;;;;;;4.73;3.87;;;16.60;65.70;;;;;;5220647;28;20516;-48
2022/09/08 06:35:12;;;;;;;4.70;2.80;;;16.50;65.80;;;;;;5230098;28;20786;-49
2022/09/08 06:37:56;;;;;;;8.33;4.10;;;16.50;65.70;;;;;;5232401;28;20436;-47
2022/09/08 06:40:41;;;;;;;3.67;3.47;;;16.50;66.10;;;;;;5224690;28;20984;-48
2022/09/08 06:43:15;;;;;;;3.87;3.43;;;16.50;66.00;;;;;;5224544;28;20437;-47
2022/09/08 06:45:52;;;;;;;14.57;4.13;;;16.60;66.50;;;;;;5231589;28;20858;-49
2022/09/08 06:48:34;;;;;;;5.57;3.63;;;16.60;66.10;;;;;;5227569;28;20519;-47
2022/09/08 06:51:20;;;;;;;14.77;3.57;;;16.60;66.40;;;;;;5237410;28;21040;-50
2022/09/08 06:54:08;;;;;;;5.43;3.37;;;16.60;66.60;;;;;;5230904;28;20409;-50
2022/09/08 06:57:20;;;;;;;4.40;3.50;;;16.50;66.60;;;;;;5230964;28;20438;-49
2022/09/08 07:00:00;;;;;;;10.80;4.33;;;16.60;66.80;;;;;;5239075;28;20464;-49
2022/09/08 07:02:40;;;;;;;17.07;4.03;;;16.70;66.90;;;;;;5227435;28;20490;-49
2022/09/08 07:05:31;;;;;;;16.13;4.80;;;16.70;66.50;;;;;;5218928;28;20456;-50
2022/09/08 07:08:23;;;;;;;7.83;3.57;;;16.70;66.90;;;;;;5220585;28;20447;-49
2022/09/08 07:10:57;;;;;;;16.57;4.37;;;16.90;66.70;;;;;;5231243;28;20464;-49
2022/09/08 07:14:13;;;;;;;9.30;4.17;;;16.80;66.80;;;;;;5229051;28;20527;-49
2022/09/08 07:17:05;;;;;;;15.80;4.00;;;16.80;67.00;;;;;;5157384;28;20460;-50
2022/09/08 07:19:35;;;;;;;6.77;3.10;;;16.80;67.40;;;;;;5222460;28;20435;-49
2022/09/08 07:22:28;;;;;;;3.93;3.63;;;16.80;68.10;;;;;;5225233;28;20450;-52
2022/09/08 07:25:14;;;;;;;13.63;3.97;;;16.80;67.40;;;;;;5229127;28;20571;-48
2022/09/08 07:27:49;;;;;;;10.97;4.10;;;16.90;67.70;;;;;;5226202;28;20525;-50
2022/09/08 07:30:20;;;;;;;7.00;4.30;;;17.00;67.60;;;;;;5229350;28;20460;-49
2022/09/08 07:33:14;;;;;;;20.33;4.10;;;17.10;67.60;;;;;;5229924;28;20433;-50
2022/09/08 07:36:12;;;;;;;4.73;3.87;;;17.20;67.60;;;;;;5221141;28;20464;-51
2022/09/08 07:38:49;;;;;;;7.90;4.10;;;17.30;67.30;;;;;;5223260;28;20499;-48
2022/09/08 07:41:28;;;;;;;12.90;4.47;;;17.50;67.50;;;;;;5224487;28;20821;-49
2022/09/08 07:44:01;;;;;;;4.63;3.60;;;17.60;66.90;;;;;;5219455;28;20444;-49
2022/09/08 07:46:53;;;;;;;6.93;3.30;;;17.50;67.10;;;;;;5227232;28;20486;-48
2022/09/08 07:49:42;;;;;;;7.27;4.37;;;17.60;67.20;;;;;;5215884;28;20429;-48
2022/09/08 07:52:31;;;;;;;6.90;4.50;;;17.70;67.00;;;;;;5220141;28;20434;-49
2022/09/08 07:55:23;;;;;;;4.77;3.40;;;17.80;67.20;;;;;;5224781;28;20987;-49
2022/09/08 07:58:05;;;;;;;5.30;4.00;;;17.80;67.00;;;;;;5210765;28;20429;-48
2022/09/08 08:01:01;;;;;;;4.23;3.83;;;18.10;66.50;;;;;;5205919;28;20474;-50
2022/09/08 08:03:52;;;;;;;7.83;3.93;;;18.80;65.40;;;;;;5206109;28;20613;-49
2022/09/08 08:06:34;;;;;;;9.57;4.63;;;19.30;62.90;;;;;;5211280;28;20553;-50
2022/09/08 08:09:27;;;;;;;7.20;4.40;;;19.80;62.10;;;;;;5214966;28;20461;-50
2022/09/08 08:12:15;;;;;;;12.40;4.50;;;20.10;60.90;;;;;;5220115;28;20437;-50
2022/09/08 08:14:59;;;;;;;6.97;4.63;;;19.90;61.40;;;;;;5218235;28;20441;-49
2022/09/08 08:17:53;;;;;;;8.20;4.93;;;19.50;62.10;;;;;;5223542;28;20429;-48
2022/09/08 08:20:32;;;;;;;13.57;4.23;;;19.00;63.60;;;;;;5224102;28;20526;-49
2022/09/08 08:23:30;;;;;;;8.63;4.13;;;18.70;64.60;;;;;;5219432;28;20590;-49
2022/09/08 08:26:36;;;;;;;6.80;4.03;;;18.40;65.80;;;;;;5217825;28;20534;-50
2022/09/08 08:29:29;;;;;;;18.07;5.33;;;18.30;66.50;;;;;;5217124;28;20425;-48
2022/09/08 08:32:05;;;;;;;11.40;5.30;;;18.10;67.10;;;;;;5213501;28;20430;-48
2022/09/08 08:35:04;;;;;;;9.30;4.60;;;18.00;68.00;;;;;;5212267;28;21234;-49
2022/09/08 08:37:38;;;;;;;7.63;4.53;;;17.80;68.80;;;;;;5212671;28;20476;-48
2022/09/08 08:40:35;;;;;;;6.57;4.57;;;17.80;69.40;;;;;;5223690;28;20950;-49
2022/09/08 08:43:09;;;;;;;16.13;4.77;;;17.80;70.30;;;;;;5219063;28;20438;-49
2022/09/08 08:46:04;;;;;;;18.63;4.87;;;17.70;71.90;;;;;;5220706;28;20449;-49
2022/09/08 08:49:02;;;;;;;10.13;5.50;;;17.60;72.90;;;;;;5221263;28;20456;-49
2022/09/08 08:51:45;;;;;;;11.37;4.97;;;17.50;74.80;;;;;;5221603;28;20454;-49
2022/09/08 08:54:43;;;;;;;9.63;4.90;;;17.30;80.00;;;;;;5220438;28;20426;-49
2022/09/08 08:57:50;;;;;;;7.27;4.70;;;17.10;85.90;;;;;;5220170;28;20544;-49
2022/09/08 09:00:22;;;;;;;7.97;5.17;;;17.00;92.80;;;;;;5216266;28;20533;-50
2022/09/08 09:03:20;;;;;;;9.60;4.80;;;16.90;96.40;;;;;;5207730;28;20960;-48
2022/09/08 09:06:15;;;;;;;5.73;5.20;;;16.90;98.80;;;;;;5217979;28;20569;-48
2022/09/08 09:09:10;;;;;;;8.37;6.00;;;16.80;99.90;;;;;;5214909;28;20517;-48
2022/09/08 09:12:09;;;;;;;23.87;5.90;;;16.90;99.90;;;;;;5216597;28;20458;-49
2022/09/08 09:15:07;;;;;;;8.20;5.90;;;17.10;99.90;;;;;;5206931;28;20454;-48
2022/09/08 09:17:58;;;;;;;7.30;5.57;;;17.20;99.90;;;;;;5216837;28;20809;-50
2022/09/08 09:20:46;;;;;;;8.20;5.10;;;17.40;99.90;;;;;;5221374;28;20449;-50
2022/09/08 09:23:52;;;;;;;13.83;6.70;;;17.50;99.90;;;;;;5218166;28;20441;-49
2022/09/08 09:26:26;;;;;;;8.33;6.47;;;17.70;99.90;;;;;;5227102;28;20474;-50
2022/09/08 09:29:23;;;;;;;9.33;5.80;;;18.00;99.90;;;;;;5222269;28;20781;-49
2022/09/08 09:32:10;;;;;;;10.07;5.63;;;18.10;99.90;;;;;;5218687;28;20526;-50
2022/09/08 09:35:13;;;;;;;15.53;6.20;;;18.30;99.90;;;;;;5220094;28;20437;-51
2022/09/08 09:38:17;;;;;;;13.03;6.17;;;18.50;99.90;;;;;;5213541;28;20453;-50
2022/09/08 09:41:36;;;;;;;9.40;6.13;;;18.50;99.90;;;;;;5216928;28;20464;-51
2022/09/08 09:44:48;;;;;;;8.30;5.77;;;18.40;99.90;;;;;;5205246;28;20452;-48
2022/09/08 09:47:36;;;;;;;7.77;6.10;;;18.20;99.90;;;;;;5224282;28;20562;-51
2022/09/08 09:50:22;;;;;;;13.47;5.77;;;18.20;99.90;;;;;;5225837;28;20858;-49
2022/09/08 09:53:24;;;;;;;15.53;7.70;;;18.10;99.90;;;;;;5224209;28;20429;-51
2022/09/08 09:56:39;;;;;;;13.43;6.70;;;18.10;99.90;;;;;;5224699;28;20445;-50
2022/09/08 09:59:31;;;;;;;8.57;6.30;;;18.30;99.90;;;;;;5171840;28;20464;-49
2022/09/08 10:02:19;;;;;;;21.53;7.47;;;18.30;99.90;;;;;;5224675;28;20515;-50
2022/09/08 10:05:07;;;;;;;10.23;6.33;;;18.40;99.90;;;;;;5221775;28;20441;-48
2022/09/08 10:08:06;;;;;;;11.27;7.17;;;18.30;99.90;;;;;;5213995;28;20438;-47
2022/09/08 10:10:49;;;;;;;9.10;7.40;;;18.30;99.90;;;;;;5214564;28;20881;-51
2022/09/08 10:13:42;;;;;;;12.00;7.47;;;18.30;99.90;;;;;;5219483;28;20473;-47
2022/09/08 10:16:45;;;;;;;11.43;6.67;;;18.30;99.90;;;;;;5210826;28;21972;-48
2022/09/08 10:19:33;;;;;;;9.30;6.53;;;18.20;99.90;;;;;;5215780;28;20449;-48
2022/09/08 10:22:14;;;;;;;12.70;7.23;;;18.20;99.90;;;;;;5211280;28;20437;-49
2022/09/08 10:25:17;;;;;;;8.20;6.90;;;18.20;99.90;;;;;;5219511;28;20433;-49
2022/09/08 10:27:58;;;;;;;10.13;5.73;;;18.20;99.90;;;;;;5219053;28;20845;-49
2022/09/08 10:30:47;;;;;;;10.70;7.43;;;18.20;99.90;;;;;;5212283;28;20450;-48
2022/09/08 10:33:59;;;;;;;13.80;7.40;;;18.00;99.90;;;;;;5218240;28;21005;-49
2022/09/08 10:37:01;;;;;;;15.33;7.30;;;17.90;99.90;;;;;;5220564;28;20433;-49
2022/09/08 10:40:00;;;;;;;15.53;6.77;;;17.70;99.90;;;;;;5217835;28;20448;-47
2022/09/08 10:43:03;;;;;;;8.67;7.53;;;17.40;99.90;;;;;;5215647;28;20528;-49
2022/09/08 10:45:44;;;;;;;9.73;6.97;;;17.30;99.90;;;;;;5206926;28;20465;-46
2022/09/08 10:48:30;;;;;;;17.73;7.60;;;17.30;99.90;;;;;;5213161;28;20751;-46
2022/09/08 10:51:15;;;;;;;23.00;8.47;;;17.00;99.90;;;;;;5212091;28;20452;-48
2022/09/08 10:54:07;;;;;;;11.33;6.83;;;16.60;99.90;;;;;;5208588;28;20441;-49
2022/09/08 10:56:40;;;;;;;11.63;8.87;;;16.40;99.90;;;;;;5211913;28;20451;-49
2022/09/08 10:59:32;;;;;;;16.70;9.30;;;16.30;99.90;;;;;;5217335;28;20437;-46
2022/09/08 11:02:34;;;;;;;16.83;11.10;;;16.10;99.90;;;;;;5211999;28;20801;-48
2022/09/08 11:05:18;;;;;;;24.93;11.50;;;15.90;99.90;;;;;;5206878;28;20442;-50
2022/09/08 11:08:23;;;;;;;18.30;13.60;;;15.70;99.90;;;;;;5211867;28;20579;-48
2022/09/08 11:11:35;;;;;;;28.67;14.40;;;15.70;99.90;;;;;;5213876;28;21456;-48
2022/09/08 11:14:30;;;;;;;24.00;15.23;;;15.50;99.90;;;;;;5215871;28;20954;-48
2022/09/08 11:17:13;;;;;;;19.47;13.07;;;15.50;99.90;;;;;;5208041;28;20455;-47
2022/09/08 11:19:55;;;;;;;23.90;14.60;;;15.50;99.90;;;;;;5210065;28;20476;-47
2022/09/08 11:22:35;;;;;;;18.43;14.73;;;15.50;99.90;;;;;;5211164;28;20434;-49
2022/09/08 11:25:36;;;;;;;24.77;17.33;;;15.40;99.90;;;;;;5216216;28;20441;-48
2022/09/08 11:28:10;;;;;;;35.00;18.20;;;15.40;99.90;;;;;;5224195;28;20466;-48
2022/09/08 11:31:01;;;;;;;28.60;18.67;;;15.30;99.90;;;;;;5219393;28;21001;-47
2022/09/08 11:33:56;;;;;;;26.60;16.83;;;15.20;99.90;;;;;;5220678;28;20546;-48
2022/09/08 11:36:42;;;;;;;31.87;18.47;;;15.10;99.90;;;;;;5217954;28;20577;-49
2022/09/08 11:39:13;;;;;;;33.90;21.03;;;15.00;99.90;;;;;;5223849;28;20441;-49
2022/09/08 11:42:26;;;;;;;31.60;20.63;;;15.00;99.90;;;;;;5220696;28;20464;-49
2022/09/08 11:45:05;;;;;;;44.83;26.20;;;15.00;99.90;;;;;;5194307;28;20335;-47
2022/09/08 11:47:57;;;;;;;41.23;22.53;;;15.10;99.90;;;;;;5222471;28;20949;-49
2022/09/08 11:50:43;;;;;;;40.93;24.60;;;15.10;99.90;;;;;;5213680;28;20457;-50
2022/09/08 11:53:26;;;;;;;48.27;26.70;;;15.00;99.90;;;;;;5214343;28;20474;-49
2022/09/08 11:56:15;;;;;;;45.77;27.90;;;15.10;99.90;;;;;;5215344;28;20519;-48
2022/09/08 11:59:06;;;;;;;60.30;29.20;;;15.10;99.90;;;;;;5209528;28;20474;-49
2022/09/08 12:02:06;;;;;;;37.37;24.30;;;15.20;99.90;;;;;;5209529;28;20969;-49
2022/09/08 12:04:55;;;;;;;46.80;27.47;;;15.30;99.90;;;;;;5221460;28;20944;-49
2022/09/08 12:08:03;;;;;;;44.33;26.40;;;15.40;99.90;;;;;;5216012;28;20474;-50
2022/09/08 12:10:50;;;;;;;41.43;25.97;;;15.40;99.90;;;;;;5216640;28;20446;-48
2022/09/08 12:13:46;;;;;;;46.33;25.37;;;15.40;99.90;;;;;;5218415;28;20433;-50
2022/09/08 12:16:46;;;;;;;36.00;23.53;;;15.30;99.90;;;;;;5237350;28;20440;-48
2022/09/08 12:19:47;;;;;;;35.17;23.70;;;15.30;99.90;;;;;;5210526;28;20774;-48
2022/09/08 12:22:53;;;;;;;36.17;26.23;;;15.20;99.90;;;;;;5211760;28;20751;-49
2022/09/08 12:25:51;;;;;;;38.57;24.17;;;15.30;99.90;;;;;;5199621;28;20465;-48
2022/09/08 12:28:28;;;;;;;43.37;28.93;;;15.30;99.90;;;;;;5216357;28;20430;-48
2022/09/08 12:31:31;;;;;;;40.97;28.77;;;15.30;99.90;;;;;;5218965;28;20458;-50
2022/09/08 12:34:31;;;;;;;48.67;33.20;;;15.40;99.90;;;;;;5186145;28;20551;-48
2022/09/08 12:37:40;;;;;;;55.87;32.77;;;15.50;99.90;;;;;;5223282;28;20461;-50
2022/09/08 12:40:27;;;;;;;52.53;32.27;;;15.60;99.90;;;;;;5217766;28;20449;-48
2022/09/08 12:43:19;;;;;;;68.47;39.77;;;15.70;99.90;;;;;;5215231;28;20437;-47
2022/09/08 12:46:17;;;;;;;56.30;36.40;;;15.80;99.90;;;;;;5225440;28;20510;-47
2022/09/08 12:48:51;;;;;;;57.73;32.73;;;15.90;99.90;;;;;;5222428;28;20529;-50
2022/09/08 12:51:34;;;;;;;48.83;32.33;;;15.90;99.90;;;;;;5208865;28;20512;-49
2022/09/08 12:55:03;;;;;;;62.60;36.03;;;15.90;99.90;;;;;;5220528;28;20432;-49
2022/09/08 12:57:54;;;;;;;40.60;28.00;;;16.00;99.90;;;;;;5157718;28;20462;-47
2022/09/08 13:00:52;;;;;;;40.63;26.23;;;15.90;99.90;;;;;;5154530;28;20474;-49
2022/09/08 13:03:33;;;;;;;48.20;29.60;;;15.90;99.90;;;;;;5218491;28;20445;-50
2022/09/08 13:06:40;;;;;;;47.57;26.20;;;15.80;99.90;;;;;;5221088;28;20480;-48
2022/09/08 13:09:24;;;;;;;46.83;30.27;;;15.80;99.90;;;;;;5223154;28;20456;-48
2022/09/08 13:12:06;;;;;;;42.47;28.90;;;15.80;99.90;;;;;;5214954;28;20422;-49
2022/09/08 13:14:50;;;;;;;54.50;36.10;;;15.90;99.90;;;;;;5220608;28;20602;-48
2022/09/08 13:17:34;;;;;;;29.43;23.30;;;15.90;99.90;;;;;;5218975;28;20532;-48
2022/09/08 13:20:28;;;;;;;50.90;28.00;;;15.90;99.90;;;;;;5207753;28;20458;-48
2022/09/08 13:23:03;;;;;;;47.53;30.47;;;15.80;99.90;;;;;;5214557;28;21032;-52
2022/09/08 13:25:52;;;;;;;40.00;26.10;;;15.90;99.90;;;;;;5223368;28;20457;-49
2022/09/08 13:28:36;;;;;;;38.23;24.43;;;16.00;99.90;;;;;;5219400;28;20445;-48
2022/09/08 13:31:33;;;;;;;48.40;26.20;;;16.00;99.90;;;;;;5210183;28;20866;-48
2022/09/08 13:34:09;;;;;;;44.37;26.90;;;16.10;99.90;;;;;;5216500;28;20942;-52
2022/09/08 13:37:04;;;;;;;35.37;21.63;;;16.00;99.90;;;;;;5216383;28;20487;-49
2022/09/08 13:40:02;;;;;;;43.63;26.83;;;16.00;99.90;;;;;;5214824;28;20788;-48
2022/09/08 13:42:36;;;;;;;54.23;29.57;;;15.90;99.90;;;;;;5220871;28;20433;-49
2022/09/08 13:45:19;;;;;;;41.83;26.50;;;15.90;99.90;;;;;;5220344;28;20449;-48
2022/09/08 13:48:04;;;;;;;46.00;26.20;;;15.90;99.90;;;;;;5217145;28;20465;-49
2022/09/08 13:50:58;;;;;;;46.80;28.60;;;15.90;99.90;;;;;;5212072;28;20473;-47
2022/09/08 13:53:44;;;;;;;41.50;28.63;;;15.80;99.90;;;;;;5212742;28;20448;-49
2022/09/08 13:56:39;;;;;;;49.77;30.70;;;15.90;99.90;;;;;;5216630;28;20441;-49
2022/09/08 13:59:39;;;;;;;53.90;32.87;;;16.00;99.90;;;;;;5214081;28;20449;-50